createdAt,value
2019-03-08T00:01:34.432Z,8.40
2019-03-08T00:06:41.668Z,8.40
2019-03-08T00:11:47.881Z,8.40
2019-03-08T00:16:53.915Z,8.40
2019-03-08T00:22:00.133Z,8.40
2019-03-08T00:27:06.217Z,8.40
2019-03-08T00:32:12.400Z,8.40
2019-03-08T00:37:18.421Z,8.40
2019-03-08T00:42:24.777Z,8.30
2019-03-08T00:47:30.822Z,8.30
2019-03-08T00:52:37.240Z,8.20
2019-03-08T00:57:45.871Z,8.20
2019-03-08T01:02:52.050Z,8.20
2019-03-08T01:07:58.261Z,8.20
2019-03-08T01:13:04.737Z,8.20
2019-03-08T01:18:10.847Z,8.20
2019-03-08T01:23:16.986Z,8.20
2019-03-08T01:28:23.132Z,8.20
2019-03-08T01:33:29.270Z,8.20
2019-03-08T01:38:35.348Z,8.20
2019-03-08T01:43:42.171Z,8.20
2019-03-08T01:48:48.430Z,8.10
2019-03-08T01:53:54.609Z,8.10
2019-03-08T01:59:00.649Z,8.10
2019-03-08T02:04:07.653Z,8.10
2019-03-08T02:09:13.875Z,8.10
2019-03-08T02:14:20.860Z,8.00
2019-03-08T02:19:27.000Z,8.00
2019-03-08T02:24:33.134Z,8.10
2019-03-08T02:29:39.507Z,8.00
2019-03-08T02:34:45.667Z,8.00
2019-03-08T02:39:51.796Z,7.90
2019-03-08T02:44:58.078Z,7.90
2019-03-08T02:50:07.920Z,7.90
2019-03-08T02:55:13.994Z,8.00
2019-03-08T03:00:20.213Z,8.00
2019-03-08T03:05:26.610Z,7.90
2019-03-08T03:10:33.183Z,7.90
2019-03-08T03:15:39.484Z,7.90
2019-03-08T03:20:45.725Z,7.90
2019-03-08T03:25:51.847Z,7.80
2019-03-08T03:30:58.320Z,7.80
2019-03-08T03:36:04.582Z,7.80
2019-03-08T03:41:11.426Z,7.80
2019-03-08T03:46:18.998Z,7.80
2019-03-08T03:51:25.350Z,7.80
2019-03-08T03:56:31.445Z,7.80
2019-03-08T04:01:46.084Z,7.80
2019-03-08T04:06:52.136Z,7.80
2019-03-08T04:11:58.704Z,7.80
2019-03-08T04:17:05.927Z,7.80
2019-03-08T04:22:12.231Z,7.80
2019-03-08T04:27:18.590Z,7.70
2019-03-08T04:32:24.663Z,7.70
2019-03-08T04:37:32.771Z,7.70
2019-03-08T04:42:39.772Z,7.70
2019-03-08T04:47:45.657Z,7.70
2019-03-08T04:52:51.829Z,7.60
2019-03-08T04:57:58.048Z,7.50
2019-03-08T05:03:04.394Z,7.50
2019-03-08T05:08:10.541Z,7.50
2019-03-08T05:13:16.717Z,7.30
2019-03-08T05:18:22.737Z,7.40
2019-03-08T05:23:28.899Z,7.30
2019-03-08T05:28:34.944Z,7.40
2019-03-08T05:33:44.845Z,7.40
2019-03-08T05:38:51.014Z,7.40
2019-03-08T05:43:57.321Z,7.40
2019-03-08T05:49:03.380Z,7.40
2019-03-08T05:54:13.219Z,7.50
2019-03-08T05:59:19.512Z,7.50
2019-03-08T06:04:25.626Z,7.50
2019-03-08T06:09:32.089Z,7.50
2019-03-08T06:14:38.516Z,7.60
2019-03-08T06:19:45.091Z,7.50
2019-03-08T06:24:51.219Z,7.60
2019-03-08T06:29:57.264Z,7.60
2019-03-08T06:35:03.451Z,7.50
2019-03-08T06:40:09.632Z,7.50
2019-03-08T06:45:16.671Z,7.40
2019-03-08T06:50:23.189Z,7.50
2019-03-08T06:55:29.274Z,7.60
2019-03-08T07:01:03.291Z,7.60
2019-03-08T07:06:09.425Z,7.60
2019-03-08T07:11:15.897Z,7.90
2019-03-08T07:16:22.193Z,8.00
2019-03-08T07:21:33.261Z,8.10
2019-03-08T07:26:59.425Z,8.30
2019-03-08T07:32:21.428Z,8.40
2019-03-08T07:37:46.893Z,8.40
2019-03-08T07:43:08.996Z,8.70
2019-03-08T07:48:34.193Z,9.00
2019-03-08T07:53:46.995Z,8.80
2019-03-08T07:59:16.746Z,8.90
2019-03-08T08:04:40.110Z,9.10
2019-03-08T08:10:05.244Z,9.40
2019-03-08T08:15:19.597Z,9.90
2019-03-08T08:20:57.236Z,10.00
2019-03-08T08:26:09.348Z,10.30
2019-03-08T08:31:26.126Z,10.70
2019-03-08T08:37:00.505Z,10.90
2019-03-08T08:42:26.834Z,10.80
2019-03-08T08:47:55.799Z,10.60
2019-03-08T08:53:20.938Z,10.80
2019-03-08T08:58:37.614Z,10.40
2019-03-08T09:04:12.092Z,10.50
2019-03-08T09:09:40.150Z,10.90
2019-03-08T09:14:52.145Z,11.40
2019-03-08T09:20:10.420Z,13.10
2019-03-08T09:25:24.688Z,14.20
2019-03-08T09:30:55.680Z,13.40
2019-03-08T09:36:26.847Z,13.80
2019-03-08T09:41:48.243Z,13.30
2019-03-08T09:47:16.456Z,14.00
2019-03-08T09:52:41.582Z,12.50
2019-03-08T09:57:57.477Z,13.00
2019-03-08T10:03:31.836Z,17.30
2019-03-08T10:08:52.420Z,18.10
2019-03-08T10:14:13.762Z,18.90
2019-03-08T10:19:31.585Z,17.30
2019-03-08T10:24:59.560Z,13.00
2019-03-08T10:30:24.849Z,16.10
2019-03-08T10:35:48.846Z,13.70
2019-03-08T10:41:16.991Z,11.90
2019-03-08T10:46:29.952Z,12.00
2019-03-08T10:52:01.444Z,12.10
2019-03-08T10:57:27.956Z,11.70
2019-03-08T11:02:43.571Z,11.50
2019-03-08T11:08:12.967Z,11.00
2019-03-08T11:13:31.538Z,11.30
2019-03-08T11:18:55.705Z,11.10
2019-03-08T11:24:13.866Z,11.20
2019-03-08T11:29:41.741Z,11.40
2019-03-08T11:35:13.048Z,11.50
2019-03-08T11:40:37.121Z,11.30
2019-03-08T11:46:05.261Z,11.00
2019-03-08T11:51:29.120Z,11.30
2019-03-08T11:56:57.289Z,11.40
2019-03-08T12:02:25.581Z,11.50
2019-03-08T12:07:38.580Z,11.20
2019-03-08T12:13:08.447Z,11.10
2019-03-08T12:18:34.316Z,11.20
2019-03-08T12:23:58.752Z,11.20
2019-03-08T12:29:26.123Z,11.10
2019-03-08T12:34:43.894Z,11.30
2019-03-08T12:40:07.783Z,11.10
2019-03-08T12:45:33.737Z,11.00
2019-03-08T12:50:49.748Z,11.00
2019-03-08T12:56:07.484Z,11.00
2019-03-08T13:01:30.636Z,10.90
2019-03-08T13:06:47.842Z,11.10
2019-03-08T13:11:54.116Z,11.10
2019-03-08T13:17:00.482Z,11.20
2019-03-08T13:22:09.889Z,11.20
2019-03-08T13:27:16.236Z,10.90
2019-03-08T13:32:24.778Z,11.10
2019-03-08T13:37:31.156Z,11.10
2019-03-08T13:42:37.713Z,10.90
2019-03-08T13:47:45.259Z,11.10
2019-03-08T13:52:52.681Z,11.00
2019-03-08T13:58:01.905Z,11.30
2019-03-08T14:03:12.698Z,11.00
2019-03-08T14:08:18.813Z,11.20
2019-03-08T14:13:25.015Z,11.10
2019-03-08T14:18:34.210Z,11.10
2019-03-08T14:23:40.725Z,11.00
2019-03-08T14:28:47.080Z,11.00
2019-03-08T14:33:53.243Z,11.10
2019-03-08T14:38:59.738Z,11.00
2019-03-08T14:44:14.745Z,10.90
2019-03-08T14:49:22.837Z,10.90
2019-03-08T14:54:28.762Z,10.90
2019-03-08T14:59:34.844Z,10.90
2019-03-08T15:04:41.013Z,10.90
2019-03-08T15:09:47.096Z,10.70
2019-03-08T15:14:54.399Z,10.60
2019-03-08T15:20:00.533Z,10.60
2019-03-08T15:25:08.333Z,10.60
2019-03-08T15:30:16.497Z,10.60
2019-03-08T15:35:22.661Z,10.70
2019-03-08T15:40:28.729Z,10.50
2019-03-08T15:45:34.865Z,10.50
2019-03-08T15:50:42.915Z,10.50
2019-03-08T15:55:52.849Z,10.50
2019-03-08T16:00:56.562Z,10.50
2019-03-08T16:06:02.961Z,10.50
2019-03-08T16:11:10.441Z,10.50
2019-03-08T16:16:16.634Z,10.30
2019-03-08T16:21:24.795Z,10.30
2019-03-08T16:26:30.469Z,10.30
2019-03-08T16:32:13.998Z,10.20
2019-03-08T16:37:28.654Z,10.10
2019-03-08T16:42:42.331Z,10.00
2019-03-08T16:48:06.013Z,10.00
2019-03-08T16:53:32.508Z,10.00
